Time;durP1;ratioP1;P1;durP2;ratioP2;P2;SDS_P1;SDS_P2;PMS_P1;PMS_P2;Temp;Humidity;BMP_temperature;BMP_pressure;BME280_temperature;BME280_humidity;BME280_pressure;Samples;Min_cycle;Max_cycle;Signal;HPM_P1;HPM_P2
2020/12/03 20:58:22;;;;;;;0.85;0.63;;;;;;;18.48;47.34;98634.94;4999943;28;96663;-53
2020/12/03 21:00:48;;;;;;;1.77;0.80;;;;;;;18.74;46.76;98634.34;4991212;28;96927;-53
2020/12/03 21:03:14;;;;;;;0.90;0.70;;;;;;;19.09;46.31;98625.38;5023783;28;103896;-53
2020/12/03 21:05:40;;;;;;;0.70;0.60;;;;;;;19.43;45.66;98629.53;4991280;28;127101;-53
2020/12/03 21:08:05;;;;;;;1.10;0.75;;;;;;;19.75;45.10;98621.47;4986924;28;103205;-53
2020/12/03 21:10:31;;;;;;;1.35;0.65;;;;;;;20.01;44.83;98617.25;4989862;28;109172;-53
2020/12/03 21:12:56;;;;;;;1.38;0.60;;;;;;;20.26;43.87;98605.97;4987373;28;126858;-53
2020/12/03 21:15:22;;;;;;;1.30;0.60;;;;;;;20.47;43.68;98608.22;4980276;28;97365;-53
2020/12/03 21:17:47;;;;;;;1.08;0.70;;;;;;;20.65;43.26;98599.13;4990326;28;97430;-53
2020/12/03 21:20:12;;;;;;;0.80;0.60;;;;;;;20.82;42.79;98595.38;4989849;28;106884;-53
2020/12/03 21:22:38;;;;;;;0.88;0.70;;;;;;;20.96;42.28;98593.59;4987870;28;126903;-53
2020/12/03 21:25:04;;;;;;;3.05;0.57;;;;;;;21.09;42.13;98590.03;4988133;28;126659;-53
2020/12/03 21:27:30;;;;;;;0.80;0.70;;;;;;;21.21;41.54;98587.50;4990614;28;96840;-53
2020/12/03 21:29:56;;;;;;;1.40;0.70;;;;;;;21.30;41.61;98576.28;5018370;28;96843;-53
2020/12/03 21:32:21;;;;;;;0.93;0.82;;;;;;;21.39;41.40;98572.16;4989249;28;97426;-53
2020/12/03 21:34:53;;;;;;;1.17;0.60;;;;;;;21.46;40.86;98574.34;5014237;28;107616;-53
2020/12/03 21:37:21;;;;;;;1.30;0.60;;;;;;;21.54;40.40;98570.31;4985991;28;96638;-53
2020/12/03 21:39:46;;;;;;;1.50;0.70;;;;;;;21.59;40.34;98566.38;4990100;28;96691;-53
2020/12/03 21:42:12;;;;;;;0.88;0.52;;;;;;;21.64;40.21;98563.38;5020155;28;99833;-53
2020/12/03 21:44:37;;;;;;;1.88;0.80;;;;;;;21.68;40.30;98555.13;4990133;28;110557;-53
2020/12/03 21:47:03;;;;;;;0.77;0.68;;;;;;;21.74;39.80;98558.31;4988569;28;108939;-53
2020/12/03 21:49:28;;;;;;;1.25;0.75;;;;;;;21.76;40.06;98554.59;4990723;28;107496;-53
2020/12/03 21:51:54;;;;;;;0.80;0.57;;;;;;;21.79;39.79;98541.09;4987372;28;126866;-53
2020/12/03 21:54:20;;;;;;;0.70;0.60;;;;;;;21.84;39.35;98544.28;4988179;28;126916;-53
2020/12/03 21:56:49;;;;;;;2.05;0.70;;;;;;;21.85;39.10;98546.00;4998816;28;98903;-53
2020/12/03 21:59:14;;;;;;;0.93;0.70;;;;;;;21.87;39.27;98532.59;4988298;28;96986;-53
2020/12/03 22:01:39;;;;;;;1.08;0.60;;;;;;;21.90;38.97;98531.53;4987114;28;122307;-53
2020/12/03 22:04:05;;;;;;;1.27;0.60;;;;;;;21.91;38.93;98533.22;4987643;28;127293;-53
2020/12/03 22:06:30;;;;;;;0.90;0.68;;;;;;;21.93;39.12;98526.03;4970325;28;105540;-53
2020/12/03 22:08:56;;;;;;;1.52;0.60;;;;;;;21.94;38.85;98512.63;4982123;28;96713;-53
2020/12/03 22:11:21;;;;;;;1.05;0.60;;;;;;;21.94;38.67;98511.78;4974049;28;126317;-53
2020/12/03 22:13:47;;;;;;;0.88;0.50;;;;;;;21.96;38.53;98507.22;4975627;28;119461;-53
2020/12/03 22:16:12;;;;;;;0.80;0.65;;;;;;;21.97;38.73;98493.00;4975788;28;110178;-53
2020/12/03 22:18:37;;;;;;;1.40;0.60;;;;;;;21.98;38.61;98481.44;4973384;28;96891;-53
2020/12/03 22:21:03;;;;;;;0.73;0.45;;;;;;;21.99;38.53;98485.75;4974927;28;97900;-54
2020/12/03 22:23:28;;;;;;;1.15;0.73;;;;;;;21.99;38.11;98485.75;4973459;28;126597;-53
2020/12/03 22:25:54;;;;;;;0.95;0.93;;;;;;;21.99;38.43;98469.84;4978619;28;97612;-53
2020/12/03 22:28:19;;;;;;;0.68;0.68;;;;;;;21.99;38.19;98465.38;4971209;28;111119;-53
2020/12/03 22:30:45;;;;;;;0.93;0.82;;;;;;;22.00;38.45;98456.47;4972802;28;127249;-53
2020/12/03 22:33:10;;;;;;;1.00;0.55;;;;;;;22.00;37.94;98456.47;4976927;28;96760;-53
2020/12/03 22:35:36;;;;;;;0.93;0.57;;;;;;;22.01;38.20;98452.00;4977391;28;107236;-53
2020/12/03 22:38:01;;;;;;;0.63;0.50;;;;;;;22.01;37.71;98439.59;4977545;28;111262;-53
2020/12/03 22:40:27;;;;;;;0.90;0.57;;;;;;;22.02;37.80;98440.44;4978102;28;99669;-53
2020/12/03 22:42:52;;;;;;;0.88;0.70;;;;;;;22.01;37.97;98428.97;4976787;28;126401;-54
2020/12/03 22:45:20;;;;;;;0.75;0.70;;;;;;;22.01;38.00;98425.44;4973869;28;97197;-53
2020/12/03 22:47:47;;;;;;;0.90;0.60;;;;;;;22.02;37.89;98424.50;4977568;28;96830;-53
2020/12/03 22:50:12;;;;;;;1.02;0.60;;;;;;;22.02;37.51;98421.84;4976673;28;108596;-53
2020/12/03 22:52:38;;;;;;;0.50;0.40;;;;;;;22.02;37.41;98414.72;4991347;28;97461;-53
2020/12/03 22:55:03;;;;;;;0.65;0.50;;;;;;;22.02;37.41;98411.22;4977585;28;110750;-53
2020/12/03 22:57:29;;;;;;;0.75;0.60;;;;;;;22.03;37.30;98404.94;4976475;28;96957;-53
2020/12/03 22:59:55;;;;;;;0.93;0.82;;;;;;;22.03;37.73;98391.66;4973240;28;97411;-53
2020/12/03 23:02:21;;;;;;;0.70;0.50;;;;;;;22.02;37.28;98385.53;4969416;28;105461;-53
2020/12/03 23:04:47;;;;;;;0.68;0.50;;;;;;;22.03;37.64;98381.94;4976945;28;102501;-53
2020/12/03 23:07:12;;;;;;;0.75;0.60;;;;;;;22.02;37.33;98380.22;4977302;28;110118;-53
2020/12/03 23:09:38;;;;;;;0.50;0.40;;;;;;;22.03;37.25;98371.31;4975770;28;120604;-53
2020/12/03 23:12:03;;;;;;;0.80;0.60;;;;;;;22.03;37.11;98370.44;4976585;28;97539;-53
2020/12/03 23:14:29;;;;;;;1.10;0.63;;;;;;;22.03;37.52;98357.16;4973585;28;110252;-53
2020/12/03 23:17:07;;;;;;;0.70;0.50;;;;;;;22.03;37.45;98359.81;4975625;28;96821;-53
2020/12/03 23:19:33;;;;;;;0.80;0.70;;;;;;;22.03;37.24;98357.16;4976128;28;97377;-54
2020/12/03 23:21:59;;;;;;;0.90;0.50;;;;;;;22.03;37.33;98354.50;4976168;28;115641;-53
2020/12/03 23:24:24;;;;;;;0.80;0.63;;;;;;;22.03;36.99;98346.53;4974103;28;98305;-53
2020/12/03 23:26:50;;;;;;;1.13;0.80;;;;;;;22.04;37.24;98345.59;4976662;28;108827;-53
2020/12/03 23:29:15;;;;;;;1.08;0.70;;;;;;;22.03;37.12;98342.09;4977553;28;102256;-54
2020/12/03 23:31:41;;;;;;;0.85;0.73;;;;;;;22.03;36.97;98334.16;4972427;28;126559;-53
2020/12/03 23:34:06;;;;;;;0.90;0.60;;;;;;;22.03;37.25;98328.84;4977784;28;96740;-53
2020/12/03 23:36:32;;;;;;;1.17;0.60;;;;;;;22.03;36.81;98318.22;4976081;28;96758;-53
2020/12/03 23:38:57;;;;;;;0.95;0.57;;;;;;;22.03;36.82;98318.22;4972190;28;97267;-53
2020/12/03 23:41:23;;;;;;;0.75;0.70;;;;;;;22.03;37.06;98312.91;4974939;28;97255;-53
2020/12/03 23:43:48;;;;;;;0.85;0.68;;;;;;;22.03;36.95;98310.25;4975309;28;103521;-53
2020/12/03 23:46:14;;;;;;;1.00;0.70;;;;;;;22.03;37.17;98298.78;4976999;28;106896;-53
2020/12/03 23:48:39;;;;;;;0.75;0.70;;;;;;;22.04;36.74;98288.03;4975688;28;101955;-53
2020/12/03 23:51:05;;;;;;;0.90;0.70;;;;;;;22.02;37.05;98297.09;4975769;28;126311;-53
2020/12/03 23:53:30;;;;;;;0.68;0.60;;;;;;;22.03;36.62;98294.34;4976724;28;110120;-54
2020/12/03 23:55:56;;;;;;;1.08;0.98;;;;;;;22.03;36.79;98286.38;4975541;28;110058;-53
2020/12/03 23:58:21;;;;;;;0.73;0.60;;;;;;;22.03;37.00;98285.50;5004539;28;112795;-53
